sensor_id;sensor_type;location;lat;lon;timestamp;P1;durP1;ratioP1;P2;durP2;ratioP2
12852;SDS011;6495;51.808;7.478;2023-02-15T00:00:34;12.33;;;7.00;;
12852;SDS011;6495;51.808;7.478;2023-02-15T00:03:02;10.20;;;6.70;;
12852;SDS011;6495;51.808;7.478;2023-02-15T00:05:30;15.80;;;8.13;;
12852;SDS011;6495;51.808;7.478;2023-02-15T00:07:58;12.43;;;7.17;;
12852;SDS011;6495;51.808;7.478;2023-02-15T00:10:27;13.00;;;7.17;;
12852;SDS011;6495;51.808;7.478;2023-02-15T00:12:56;8.23;;;5.97;;
12852;SDS011;6495;51.808;7.478;2023-02-15T00:15:24;11.17;;;6.57;;
12852;SDS011;6495;51.808;7.478;2023-02-15T00:17:52;8.27;;;5.73;;
12852;SDS011;6495;51.808;7.478;2023-02-15T00:20:20;10.33;;;6.27;;
12852;SDS011;6495;51.808;7.478;2023-02-15T00:22:48;10.83;;;6.47;;
12852;SDS011;6495;51.808;7.478;2023-02-15T00:25:16;12.50;;;6.43;;
12852;SDS011;6495;51.808;7.478;2023-02-15T00:27:44;11.10;;;5.83;;
12852;SDS011;6495;51.808;7.478;2023-02-15T00:30:14;9.67;;;5.77;;
12852;SDS011;6495;51.808;7.478;2023-02-15T00:32:43;8.10;;;5.20;;
12852;SDS011;6495;51.808;7.478;2023-02-15T00:35:11;8.17;;;5.60;;
12852;SDS011;6495;51.808;7.478;2023-02-15T00:37:39;9.80;;;5.47;;
12852;SDS011;6495;51.808;7.478;2023-02-15T00:40:07;11.77;;;6.07;;
12852;SDS011;6495;51.808;7.478;2023-02-15T00:42:36;7.13;;;4.77;;
12852;SDS011;6495;51.808;7.478;2023-02-15T00:45:05;9.07;;;4.83;;
12852;SDS011;6495;51.808;7.478;2023-02-15T00:47:35;8.60;;;5.50;;
12852;SDS011;6495;51.808;7.478;2023-02-15T00:50:03;6.97;;;4.77;;
12852;SDS011;6495;51.808;7.478;2023-02-15T00:52:33;7.20;;;5.03;;
12852;SDS011;6495;51.808;7.478;2023-02-15T00:55:02;7.93;;;5.07;;
12852;SDS011;6495;51.808;7.478;2023-02-15T00:57:30;10.07;;;5.13;;
12852;SDS011;6495;51.808;7.478;2023-02-15T00:59:59;8.80;;;5.00;;
12852;SDS011;6495;51.808;7.478;2023-02-15T01:02:27;9.53;;;5.40;;
12852;SDS011;6495;51.808;7.478;2023-02-15T01:04:56;7.40;;;5.17;;
12852;SDS011;6495;51.808;7.478;2023-02-15T01:07:24;8.17;;;5.03;;
12852;SDS011;6495;51.808;7.478;2023-02-15T01:09:53;10.83;;;5.90;;
12852;SDS011;6495;51.808;7.478;2023-02-15T01:12:21;9.10;;;5.43;;
12852;SDS011;6495;51.808;7.478;2023-02-15T01:14:49;10.67;;;5.73;;
12852;SDS011;6495;51.808;7.478;2023-02-15T01:17:18;11.17;;;5.37;;
12852;SDS011;6495;51.808;7.478;2023-02-15T01:19:46;9.57;;;5.43;;
12852;SDS011;6495;51.808;7.478;2023-02-15T01:22:16;9.93;;;5.33;;
12852;SDS011;6495;51.808;7.478;2023-02-15T01:24:44;9.27;;;6.03;;
12852;SDS011;6495;51.808;7.478;2023-02-15T01:27:12;10.97;;;5.37;;
12852;SDS011;6495;51.808;7.478;2023-02-15T01:29:42;12.67;;;6.63;;
12852;SDS011;6495;51.808;7.478;2023-02-15T01:32:11;8.43;;;5.87;;
12852;SDS011;6495;51.808;7.478;2023-02-15T01:34:41;15.10;;;6.30;;
12852;SDS011;6495;51.808;7.478;2023-02-15T01:37:09;11.83;;;5.73;;
12852;SDS011;6495;51.808;7.478;2023-02-15T01:39:39;9.70;;;5.27;;
12852;SDS011;6495;51.808;7.478;2023-02-15T01:42:07;15.00;;;5.47;;
12852;SDS011;6495;51.808;7.478;2023-02-15T01:47:28;8.67;;;5.50;;
12852;SDS011;6495;51.808;7.478;2023-02-15T01:50:04;9.43;;;5.37;;
12852;SDS011;6495;51.808;7.478;2023-02-15T01:52:37;10.07;;;4.93;;
12852;SDS011;6495;51.808;7.478;2023-02-15T01:55:12;11.37;;;5.97;;
12852;SDS011;6495;51.808;7.478;2023-02-15T01:57:42;7.73;;;5.07;;
12852;SDS011;6495;51.808;7.478;2023-02-15T02:00:13;8.63;;;5.17;;
12852;SDS011;6495;51.808;7.478;2023-02-15T02:02:46;10.53;;;5.90;;
12852;SDS011;6495;51.808;7.478;2023-02-15T02:05:20;9.00;;;5.37;;
12852;SDS011;6495;51.808;7.478;2023-02-15T02:07:48;10.13;;;5.60;;
12852;SDS011;6495;51.808;7.478;2023-02-15T02:10:23;9.23;;;4.80;;
12852;SDS011;6495;51.808;7.478;2023-02-15T02:12:52;10.40;;;5.90;;
12852;SDS011;6495;51.808;7.478;2023-02-15T02:15:27;8.23;;;5.10;;
12852;SDS011;6495;51.808;7.478;2023-02-15T02:18:15;8.87;;;5.43;;
12852;SDS011;6495;51.808;7.478;2023-02-15T02:21:04;14.10;;;5.87;;
12852;SDS011;6495;51.808;7.478;2023-02-15T02:24:23;10.10;;;4.97;;
12852;SDS011;6495;51.808;7.478;2023-02-15T02:27:34;9.07;;;5.43;;
12852;SDS011;6495;51.808;7.478;2023-02-15T02:30:13;11.37;;;5.93;;
12852;SDS011;6495;51.808;7.478;2023-02-15T02:33:23;10.97;;;5.33;;
12852;SDS011;6495;51.808;7.478;2023-02-15T02:36:06;12.90;;;6.40;;
12852;SDS011;6495;51.808;7.478;2023-02-15T02:38:55;9.60;;;6.00;;
12852;SDS011;6495;51.808;7.478;2023-02-15T02:41:43;11.47;;;5.50;;
12852;SDS011;6495;51.808;7.478;2023-02-15T02:44:22;8.67;;;5.30;;
12852;SDS011;6495;51.808;7.478;2023-02-15T02:46:57;12.50;;;6.50;;
12852;SDS011;6495;51.808;7.478;2023-02-15T02:49:34;8.70;;;4.97;;
12852;SDS011;6495;51.808;7.478;2023-02-15T02:52:05;10.20;;;5.53;;
12852;SDS011;6495;51.808;7.478;2023-02-15T02:55:05;10.33;;;4.97;;
12852;SDS011;6495;51.808;7.478;2023-02-15T02:57:41;11.27;;;5.87;;
12852;SDS011;6495;51.808;7.478;2023-02-15T03:00:19;15.17;;;6.27;;
12852;SDS011;6495;51.808;7.478;2023-02-15T03:02:51;9.83;;;5.30;;
12852;SDS011;6495;51.808;7.478;2023-02-15T03:05:32;11.20;;;6.00;;
12852;SDS011;6495;51.808;7.478;2023-02-15T03:08:06;10.10;;;5.23;;
12852;SDS011;6495;51.808;7.478;2023-02-15T03:10:37;8.90;;;5.80;;
12852;SDS011;6495;51.808;7.478;2023-02-15T03:13:08;11.93;;;6.47;;
12852;SDS011;6495;51.808;7.478;2023-02-15T03:15:36;10.93;;;5.97;;
12852;SDS011;6495;51.808;7.478;2023-02-15T03:18:28;9.47;;;5.50;;
12852;SDS011;6495;51.808;7.478;2023-02-15T03:21:03;10.00;;;5.67;;
12852;SDS011;6495;51.808;7.478;2023-02-15T03:23:35;13.03;;;6.57;;
12852;SDS011;6495;51.808;7.478;2023-02-15T03:26:06;14.80;;;6.43;;
12852;SDS011;6495;51.808;7.478;2023-02-15T03:28:38;16.23;;;6.93;;
12852;SDS011;6495;51.808;7.478;2023-02-15T03:31:11;14.13;;;6.83;;
12852;SDS011;6495;51.808;7.478;2023-02-15T03:33:44;18.53;;;7.10;;
12852;SDS011;6495;51.808;7.478;2023-02-15T03:36:22;16.10;;;7.00;;
12852;SDS011;6495;51.808;7.478;2023-02-15T03:38:59;8.80;;;5.60;;
12852;SDS011;6495;51.808;7.478;2023-02-15T03:41:39;13.97;;;6.30;;
12852;SDS011;6495;51.808;7.478;2023-02-15T03:44:16;8.60;;;4.90;;
12852;SDS011;6495;51.808;7.478;2023-02-15T03:46:55;13.20;;;5.80;;
12852;SDS011;6495;51.808;7.478;2023-02-15T03:49:34;9.50;;;5.17;;
12852;SDS011;6495;51.808;7.478;2023-02-15T03:52:10;8.50;;;4.80;;
12852;SDS011;6495;51.808;7.478;2023-02-15T03:54:41;9.37;;;5.30;;
12852;SDS011;6495;51.808;7.478;2023-02-15T03:57:16;10.67;;;5.70;;
12852;SDS011;6495;51.808;7.478;2023-02-15T04:00:09;7.87;;;5.13;;
12852;SDS011;6495;51.808;7.478;2023-02-15T04:03:08;11.10;;;6.40;;
12852;SDS011;6495;51.808;7.478;2023-02-15T04:05:48;10.17;;;6.10;;
12852;SDS011;6495;51.808;7.478;2023-02-15T04:08:18;12.60;;;6.87;;
12852;SDS011;6495;51.808;7.478;2023-02-15T04:10:46;12.37;;;6.73;;
12852;SDS011;6495;51.808;7.478;2023-02-15T04:13:19;10.90;;;6.23;;
12852;SDS011;6495;51.808;7.478;2023-02-15T04:15:48;9.40;;;5.20;;
12852;SDS011;6495;51.808;7.478;2023-02-15T04:18:35;10.90;;;6.60;;
12852;SDS011;6495;51.808;7.478;2023-02-15T04:21:23;10.33;;;5.73;;
12852;SDS011;6495;51.808;7.478;2023-02-15T04:24:13;8.97;;;5.20;;
12852;SDS011;6495;51.808;7.478;2023-02-15T04:27:00;8.97;;;5.53;;
12852;SDS011;6495;51.808;7.478;2023-02-15T04:29:30;11.87;;;5.40;;
12852;SDS011;6495;51.808;7.478;2023-02-15T04:31:59;7.27;;;4.83;;
12852;SDS011;6495;51.808;7.478;2023-02-15T04:34:28;8.87;;;5.27;;
12852;SDS011;6495;51.808;7.478;2023-02-15T04:36:56;8.47;;;5.13;;
12852;SDS011;6495;51.808;7.478;2023-02-15T04:39:26;10.57;;;5.40;;
12852;SDS011;6495;51.808;7.478;2023-02-15T04:41:54;7.13;;;4.50;;
12852;SDS011;6495;51.808;7.478;2023-02-15T04:44:22;9.53;;;5.17;;
12852;SDS011;6495;51.808;7.478;2023-02-15T04:46:50;9.20;;;5.10;;
12852;SDS011;6495;51.808;7.478;2023-02-15T04:49:18;8.10;;;5.37;;
12852;SDS011;6495;51.808;7.478;2023-02-15T04:51:46;8.53;;;5.30;;
12852;SDS011;6495;51.808;7.478;2023-02-15T04:54:14;6.60;;;5.00;;
12852;SDS011;6495;51.808;7.478;2023-02-15T04:56:44;9.67;;;5.83;;
12852;SDS011;6495;51.808;7.478;2023-02-15T04:59:12;11.57;;;5.33;;
12852;SDS011;6495;51.808;7.478;2023-02-15T05:01:40;7.73;;;4.67;;
12852;SDS011;6495;51.808;7.478;2023-02-15T05:04:09;8.87;;;5.00;;
12852;SDS011;6495;51.808;7.478;2023-02-15T05:06:37;8.23;;;4.47;;
12852;SDS011;6495;51.808;7.478;2023-02-15T05:09:05;7.03;;;4.60;;
12852;SDS011;6495;51.808;7.478;2023-02-15T05:11:33;7.70;;;4.53;;
12852;SDS011;6495;51.808;7.478;2023-02-15T05:14:02;7.77;;;5.30;;
12852;SDS011;6495;51.808;7.478;2023-02-15T05:16:31;8.53;;;4.60;;
12852;SDS011;6495;51.808;7.478;2023-02-15T05:18:59;7.73;;;5.27;;
12852;SDS011;6495;51.808;7.478;2023-02-15T05:21:27;8.23;;;5.37;;
12852;SDS011;6495;51.808;7.478;2023-02-15T05:23:55;8.03;;;5.23;;
12852;SDS011;6495;51.808;7.478;2023-02-15T05:26:24;6.97;;;4.93;;
12852;SDS011;6495;51.808;7.478;2023-02-15T05:31:54;8.27;;;5.03;;
12852;SDS011;6495;51.808;7.478;2023-02-15T05:34:23;9.93;;;5.50;;
12852;SDS011;6495;51.808;7.478;2023-02-15T05:36:51;11.67;;;5.93;;
12852;SDS011;6495;51.808;7.478;2023-02-15T05:39:22;9.57;;;5.43;;
12852;SDS011;6495;51.808;7.478;2023-02-15T05:41:50;9.60;;;4.87;;
12852;SDS011;6495;51.808;7.478;2023-02-15T05:44:18;10.90;;;5.30;;
12852;SDS011;6495;51.808;7.478;2023-02-15T05:46:48;9.47;;;5.47;;
12852;SDS011;6495;51.808;7.478;2023-02-15T05:49:16;8.67;;;5.40;;
12852;SDS011;6495;51.808;7.478;2023-02-15T05:51:44;11.63;;;5.20;;
12852;SDS011;6495;51.808;7.478;2023-02-15T05:54:12;11.60;;;5.10;;
12852;SDS011;6495;51.808;7.478;2023-02-15T05:56:40;11.43;;;5.97;;
12852;SDS011;6495;51.808;7.478;2023-02-15T05:59:08;10.63;;;6.03;;
12852;SDS011;6495;51.808;7.478;2023-02-15T06:01:36;11.43;;;5.70;;
12852;SDS011;6495;51.808;7.478;2023-02-15T06:04:06;9.03;;;5.47;;
12852;SDS011;6495;51.808;7.478;2023-02-15T06:06:34;10.43;;;5.80;;
12852;SDS011;6495;51.808;7.478;2023-02-15T06:09:02;9.67;;;5.47;;
12852;SDS011;6495;51.808;7.478;2023-02-15T06:11:30;9.67;;;5.90;;
12852;SDS011;6495;51.808;7.478;2023-02-15T06:13:58;10.33;;;6.03;;
12852;SDS011;6495;51.808;7.478;2023-02-15T06:16:27;9.20;;;5.53;;
12852;SDS011;6495;51.808;7.478;2023-02-15T06:18:55;8.90;;;4.80;;
12852;SDS011;6495;51.808;7.478;2023-02-15T06:21:26;8.03;;;5.13;;
12852;SDS011;6495;51.808;7.478;2023-02-15T06:23:54;8.97;;;5.27;;
12852;SDS011;6495;51.808;7.478;2023-02-15T06:26:22;8.97;;;5.10;;
12852;SDS011;6495;51.808;7.478;2023-02-15T06:28:51;8.90;;;5.47;;
12852;SDS011;6495;51.808;7.478;2023-02-15T06:31:19;10.07;;;5.73;;
12852;SDS011;6495;51.808;7.478;2023-02-15T06:33:47;9.50;;;5.97;;
12852;SDS011;6495;51.808;7.478;2023-02-15T06:36:16;12.17;;;5.90;;
12852;SDS011;6495;51.808;7.478;2023-02-15T06:38:45;9.63;;;5.60;;
12852;SDS011;6495;51.808;7.478;2023-02-15T06:41:13;10.87;;;5.67;;
12852;SDS011;6495;51.808;7.478;2023-02-15T06:43:41;11.20;;;5.67;;
12852;SDS011;6495;51.808;7.478;2023-02-15T06:46:09;9.20;;;5.83;;
12852;SDS011;6495;51.808;7.478;2023-02-15T06:48:37;8.50;;;5.63;;
12852;SDS011;6495;51.808;7.478;2023-02-15T06:51:05;9.13;;;5.30;;
12852;SDS011;6495;51.808;7.478;2023-02-15T06:53:34;7.53;;;4.97;;
12852;SDS011;6495;51.808;7.478;2023-02-15T06:56:04;9.27;;;5.07;;
12852;SDS011;6495;51.808;7.478;2023-02-15T06:58:35;9.63;;;5.37;;
12852;SDS011;6495;51.808;7.478;2023-02-15T07:01:04;9.73;;;5.97;;
12852;SDS011;6495;51.808;7.478;2023-02-15T07:03:32;13.03;;;6.17;;
12852;SDS011;6495;51.808;7.478;2023-02-15T07:06:02;10.57;;;6.30;;
12852;SDS011;6495;51.808;7.478;2023-02-15T07:08:34;11.80;;;5.07;;
12852;SDS011;6495;51.808;7.478;2023-02-15T07:11:04;9.47;;;5.27;;
12852;SDS011;6495;51.808;7.478;2023-02-15T07:13:51;10.80;;;5.40;;
12852;SDS011;6495;51.808;7.478;2023-02-15T07:16:19;10.03;;;5.53;;
12852;SDS011;6495;51.808;7.478;2023-02-15T07:18:48;12.17;;;5.20;;
12852;SDS011;6495;51.808;7.478;2023-02-15T07:21:16;11.40;;;5.90;;
12852;SDS011;6495;51.808;7.478;2023-02-15T07:23:44;9.30;;;5.43;;
12852;SDS011;6495;51.808;7.478;2023-02-15T07:26:13;8.13;;;5.23;;
12852;SDS011;6495;51.808;7.478;2023-02-15T07:28:41;8.93;;;5.57;;
12852;SDS011;6495;51.808;7.478;2023-02-15T07:31:10;11.77;;;5.87;;
12852;SDS011;6495;51.808;7.478;2023-02-15T07:33:38;8.03;;;5.43;;
12852;SDS011;6495;51.808;7.478;2023-02-15T07:36:07;8.90;;;5.50;;
12852;SDS011;6495;51.808;7.478;2023-02-15T07:38:39;10.33;;;5.77;;
12852;SDS011;6495;51.808;7.478;2023-02-15T07:41:10;10.53;;;5.47;;
12852;SDS011;6495;51.808;7.478;2023-02-15T07:43:43;8.20;;;5.43;;
12852;SDS011;6495;51.808;7.478;2023-02-15T07:46:13;9.83;;;5.60;;
12852;SDS011;6495;51.808;7.478;2023-02-15T07:48:43;12.17;;;5.70;;
12852;SDS011;6495;51.808;7.478;2023-02-15T07:51:12;11.33;;;5.40;;
12852;SDS011;6495;51.808;7.478;2023-02-15T07:53:42;13.60;;;6.70;;
12852;SDS011;6495;51.808;7.478;2023-02-15T07:56:10;9.90;;;6.43;;
12852;SDS011;6495;51.808;7.478;2023-02-15T07:58:42;15.60;;;6.33;;
12852;SDS011;6495;51.808;7.478;2023-02-15T08:01:20;11.67;;;6.67;;
12852;SDS011;6495;51.808;7.478;2023-02-15T08:03:51;11.27;;;6.53;;
12852;SDS011;6495;51.808;7.478;2023-02-15T08:06:21;12.57;;;5.70;;
12852;SDS011;6495;51.808;7.478;2023-02-15T08:08:51;11.93;;;5.83;;
12852;SDS011;6495;51.808;7.478;2023-02-15T08:11:20;10.37;;;5.93;;
12852;SDS011;6495;51.808;7.478;2023-02-15T08:13:57;12.10;;;6.27;;
12852;SDS011;6495;51.808;7.478;2023-02-15T08:16:30;18.13;;;7.40;;
12852;SDS011;6495;51.808;7.478;2023-02-15T08:19:01;13.13;;;7.77;;
12852;SDS011;6495;51.808;7.478;2023-02-15T08:21:31;17.07;;;8.63;;
12852;SDS011;6495;51.808;7.478;2023-02-15T08:24:02;20.20;;;9.20;;
12852;SDS011;6495;51.808;7.478;2023-02-15T08:26:33;18.10;;;9.57;;
12852;SDS011;6495;51.808;7.478;2023-02-15T08:29:04;18.90;;;9.70;;
12852;SDS011;6495;51.808;7.478;2023-02-15T08:31:33;16.13;;;8.50;;
12852;SDS011;6495;51.808;7.478;2023-02-15T08:34:04;11.00;;;7.23;;
12852;SDS011;6495;51.808;7.478;2023-02-15T08:36:33;15.50;;;7.93;;
12852;SDS011;6495;51.808;7.478;2023-02-15T08:39:02;13.50;;;8.03;;
12852;SDS011;6495;51.808;7.478;2023-02-15T08:41:33;12.90;;;7.63;;
12852;SDS011;6495;51.808;7.478;2023-02-15T08:44:05;13.63;;;7.73;;
12852;SDS011;6495;51.808;7.478;2023-02-15T08:46:36;10.43;;;7.47;;
12852;SDS011;6495;51.808;7.478;2023-02-15T08:49:08;14.80;;;7.83;;
12852;SDS011;6495;51.808;7.478;2023-02-15T08:51:37;14.77;;;8.10;;
12852;SDS011;6495;51.808;7.478;2023-02-15T08:54:07;11.60;;;7.43;;
12852;SDS011;6495;51.808;7.478;2023-02-15T08:56:38;15.43;;;8.90;;
12852;SDS011;6495;51.808;7.478;2023-02-15T08:59:12;15.23;;;8.73;;
12852;SDS011;6495;51.808;7.478;2023-02-15T09:01:45;17.77;;;9.63;;
12852;SDS011;6495;51.808;7.478;2023-02-15T09:04:15;17.00;;;9.30;;
12852;SDS011;6495;51.808;7.478;2023-02-15T09:06:44;15.23;;;9.23;;
12852;SDS011;6495;51.808;7.478;2023-02-15T09:09:15;17.13;;;9.53;;
12852;SDS011;6495;51.808;7.478;2023-02-15T09:11:45;16.47;;;9.67;;
12852;SDS011;6495;51.808;7.478;2023-02-15T09:14:25;16.33;;;9.50;;
12852;SDS011;6495;51.808;7.478;2023-02-15T09:16:54;18.43;;;10.27;;
12852;SDS011;6495;51.808;7.478;2023-02-15T09:19:23;20.77;;;10.60;;
12852;SDS011;6495;51.808;7.478;2023-02-15T09:21:52;22.10;;;11.17;;
12852;SDS011;6495;51.808;7.478;2023-02-15T09:24:21;19.97;;;11.73;;
12852;SDS011;6495;51.808;7.478;2023-02-15T09:26:49;24.67;;;12.60;;
12852;SDS011;6495;51.808;7.478;2023-02-15T09:29:17;24.37;;;13.20;;
12852;SDS011;6495;51.808;7.478;2023-02-15T09:31:48;23.27;;;12.80;;
12852;SDS011;6495;51.808;7.478;2023-02-15T09:34:20;19.67;;;12.53;;
12852;SDS011;6495;51.808;7.478;2023-02-15T09:36:49;27.37;;;13.57;;
12852;SDS011;6495;51.808;7.478;2023-02-15T09:39:19;18.60;;;10.70;;
12852;SDS011;6495;51.808;7.478;2023-02-15T09:42:03;20.80;;;10.93;;
12852;SDS011;6495;51.808;7.478;2023-02-15T09:45:21;22.67;;;10.77;;
12852;SDS011;6495;51.808;7.478;2023-02-15T09:48:18;18.40;;;10.10;;
12852;SDS011;6495;51.808;7.478;2023-02-15T09:54:29;19.87;;;10.00;;
12852;SDS011;6495;51.808;7.478;2023-02-15T09:57:16;24.03;;;10.83;;
12852;SDS011;6495;51.808;7.478;2023-02-15T10:00:01;19.63;;;10.73;;
12852;SDS011;6495;51.808;7.478;2023-02-15T10:02:48;21.30;;;11.50;;
12852;SDS011;6495;51.808;7.478;2023-02-15T10:05:48;18.27;;;9.90;;
12852;SDS011;6495;51.808;7.478;2023-02-15T10:08:44;21.13;;;11.27;;
12852;SDS011;6495;51.808;7.478;2023-02-15T10:11:32;23.67;;;10.73;;
12852;SDS011;6495;51.808;7.478;2023-02-15T10:17:29;20.17;;;10.63;;
12852;SDS011;6495;51.808;7.478;2023-02-15T10:20:17;20.67;;;10.73;;
12852;SDS011;6495;51.808;7.478;2023-02-15T10:23:05;20.37;;;10.93;;
12852;SDS011;6495;51.808;7.478;2023-02-15T10:25:59;21.10;;;11.77;;
12852;SDS011;6495;51.808;7.478;2023-02-15T10:28:39;21.93;;;10.73;;
12852;SDS011;6495;51.808;7.478;2023-02-15T10:31:17;23.17;;;11.33;;
12852;SDS011;6495;51.808;7.478;2023-02-15T10:34:00;23.17;;;12.13;;
12852;SDS011;6495;51.808;7.478;2023-02-15T10:39:56;20.33;;;10.37;;
12852;SDS011;6495;51.808;7.478;2023-02-15T10:42:38;22.93;;;11.40;;
12852;SDS011;6495;51.808;7.478;2023-02-15T10:45:24;24.07;;;11.87;;
12852;SDS011;6495;51.808;7.478;2023-02-15T10:48:06;23.98;;;12.32;;
12852;SDS011;6495;51.808;7.478;2023-02-15T10:50:50;21.02;;;11.18;;
12852;SDS011;6495;51.808;7.478;2023-02-15T10:56:32;27.20;;;12.10;;
12852;SDS011;6495;51.808;7.478;2023-02-15T11:02:11;22.17;;;11.18;;
12852;SDS011;6495;51.808;7.478;2023-02-15T11:04:50;24.50;;;11.63;;
12852;SDS011;6495;51.808;7.478;2023-02-15T11:07:27;22.08;;;12.07;;
12852;SDS011;6495;51.808;7.478;2023-02-15T11:10:05;21.50;;;11.23;;
12852;SDS011;6495;51.808;7.478;2023-02-15T11:12:51;24.90;;;12.20;;
12852;SDS011;6495;51.808;7.478;2023-02-15T11:15:25;23.70;;;11.95;;
12852;SDS011;6495;51.808;7.478;2023-02-15T11:18:02;23.25;;;12.25;;
12852;SDS011;6495;51.808;7.478;2023-02-15T11:20:42;23.13;;;12.30;;
12852;SDS011;6495;51.808;7.478;2023-02-15T11:23:19;19.80;;;11.05;;
12852;SDS011;6495;51.808;7.478;2023-02-15T11:25:52;21.63;;;12.07;;
12852;SDS011;6495;51.808;7.478;2023-02-15T11:28:28;27.95;;;13.23;;
12852;SDS011;6495;51.808;7.478;2023-02-15T11:31:10;22.20;;;11.52;;
12852;SDS011;6495;51.808;7.478;2023-02-15T11:33:45;21.67;;;12.40;;
12852;SDS011;6495;51.808;7.478;2023-02-15T11:36:19;24.58;;;12.60;;
12852;SDS011;6495;51.808;7.478;2023-02-15T11:38:52;24.83;;;12.52;;
12852;SDS011;6495;51.808;7.478;2023-02-15T11:41:31;19.55;;;11.35;;
12852;SDS011;6495;51.808;7.478;2023-02-15T11:44:06;27.38;;;14.25;;
12852;SDS011;6495;51.808;7.478;2023-02-15T11:46:43;22.55;;;12.02;;
12852;SDS011;6495;51.808;7.478;2023-02-15T11:49:16;22.17;;;11.38;;
12852;SDS011;6495;51.808;7.478;2023-02-15T11:51:53;22.40;;;11.02;;
12852;SDS011;6495;51.808;7.478;2023-02-15T11:54:26;20.35;;;11.52;;
12852;SDS011;6495;51.808;7.478;2023-02-15T11:56:58;24.73;;;11.88;;
12852;SDS011;6495;51.808;7.478;2023-02-15T11:59:40;20.02;;;12.32;;
12852;SDS011;6495;51.808;7.478;2023-02-15T12:02:15;22.92;;;12.13;;
12852;SDS011;6495;51.808;7.478;2023-02-15T12:04:48;22.70;;;12.50;;
12852;SDS011;6495;51.808;7.478;2023-02-15T12:07:23;21.42;;;11.55;;
12852;SDS011;6495;51.808;7.478;2023-02-15T12:09:59;21.27;;;11.82;;
12852;SDS011;6495;51.808;7.478;2023-02-15T12:12:38;22.45;;;11.95;;
12852;SDS011;6495;51.808;7.478;2023-02-15T12:15:08;19.58;;;10.85;;
12852;SDS011;6495;51.808;7.478;2023-02-15T12:17:39;19.63;;;11.18;;
12852;SDS011;6495;51.808;7.478;2023-02-15T12:20:25;27.60;;;12.95;;
12852;SDS011;6495;51.808;7.478;2023-02-15T12:22:59;18.65;;;11.40;;
12852;SDS011;6495;51.808;7.478;2023-02-15T12:25:33;25.55;;;12.48;;
12852;SDS011;6495;51.808;7.478;2023-02-15T12:28:15;20.02;;;11.40;;
12852;SDS011;6495;51.808;7.478;2023-02-15T12:30:54;27.15;;;11.60;;
12852;SDS011;6495;51.808;7.478;2023-02-15T12:33:26;25.42;;;12.18;;
12852;SDS011;6495;51.808;7.478;2023-02-15T12:35:59;20.02;;;11.70;;
12852;SDS011;6495;51.808;7.478;2023-02-15T12:38:36;21.58;;;11.73;;
12852;SDS011;6495;51.808;7.478;2023-02-15T12:41:10;23.42;;;12.02;;
12852;SDS011;6495;51.808;7.478;2023-02-15T12:44:02;22.83;;;12.43;;
12852;SDS011;6495;51.808;7.478;2023-02-15T12:46:41;21.75;;;11.63;;
12852;SDS011;6495;51.808;7.478;2023-02-15T12:49:15;25.95;;;12.10;;
12852;SDS011;6495;51.808;7.478;2023-02-15T12:51:47;27.52;;;11.45;;
12852;SDS011;6495;51.808;7.478;2023-02-15T12:54:24;25.13;;;12.20;;
12852;SDS011;6495;51.808;7.478;2023-02-15T12:57:17;22.27;;;11.73;;
12852;SDS011;6495;51.808;7.478;2023-02-15T12:59:53;23.25;;;11.73;;
12852;SDS011;6495;51.808;7.478;2023-02-15T13:02:29;22.02;;;11.68;;
12852;SDS011;6495;51.808;7.478;2023-02-15T13:05:14;20.00;;;11.48;;
12852;SDS011;6495;51.808;7.478;2023-02-15T13:07:50;23.63;;;12.43;;
12852;SDS011;6495;51.808;7.478;2023-02-15T13:10:25;22.23;;;11.40;;
12852;SDS011;6495;51.808;7.478;2023-02-15T13:12:56;20.80;;;11.02;;
12852;SDS011;6495;51.808;7.478;2023-02-15T13:15:30;18.40;;;10.82;;
12852;SDS011;6495;51.808;7.478;2023-02-15T13:18:09;22.73;;;11.23;;
12852;SDS011;6495;51.808;7.478;2023-02-15T13:20:44;21.85;;;10.75;;
12852;SDS011;6495;51.808;7.478;2023-02-15T13:23:21;26.05;;;10.98;;
12852;SDS011;6495;51.808;7.478;2023-02-15T13:25:55;24.95;;;11.85;;
12852;SDS011;6495;51.808;7.478;2023-02-15T13:28:38;18.67;;;10.30;;
12852;SDS011;6495;51.808;7.478;2023-02-15T13:31:12;20.02;;;11.50;;
12852;SDS011;6495;51.808;7.478;2023-02-15T13:33:48;22.05;;;10.98;;
12852;SDS011;6495;51.808;7.478;2023-02-15T13:36:22;19.83;;;11.30;;
12852;SDS011;6495;51.808;7.478;2023-02-15T13:39:02;21.45;;;10.43;;
12852;SDS011;6495;51.808;7.478;2023-02-15T13:41:47;20.98;;;11.30;;
12852;SDS011;6495;51.808;7.478;2023-02-15T13:44:27;21.70;;;9.90;;
12852;SDS011;6495;51.808;7.478;2023-02-15T13:47:21;23.48;;;10.32;;
12852;SDS011;6495;51.808;7.478;2023-02-15T13:50:03;21.33;;;10.40;;
12852;SDS011;6495;51.808;7.478;2023-02-15T13:52:51;21.67;;;10.13;;
12852;SDS011;6495;51.808;7.478;2023-02-15T13:55:38;21.55;;;10.10;;
12852;SDS011;6495;51.808;7.478;2023-02-15T13:58:27;22.67;;;10.75;;
12852;SDS011;6495;51.808;7.478;2023-02-15T14:01:17;19.98;;;9.75;;
12852;SDS011;6495;51.808;7.478;2023-02-15T14:04:02;21.40;;;9.60;;
12852;SDS011;6495;51.808;7.478;2023-02-15T14:07:06;21.60;;;10.43;;
12852;SDS011;6495;51.808;7.478;2023-02-15T14:10:03;16.20;;;9.20;;
12852;SDS011;6495;51.808;7.478;2023-02-15T14:13:03;20.48;;;10.77;;
12852;SDS011;6495;51.808;7.478;2023-02-15T14:15:58;19.50;;;9.73;;
12852;SDS011;6495;51.808;7.478;2023-02-15T14:18:34;17.83;;;9.65;;
12852;SDS011;6495;51.808;7.478;2023-02-15T14:21:10;16.73;;;9.15;;
12852;SDS011;6495;51.808;7.478;2023-02-15T14:23:51;21.77;;;8.85;;
12852;SDS011;6495;51.808;7.478;2023-02-15T14:26:38;15.18;;;8.88;;
12852;SDS011;6495;51.808;7.478;2023-02-15T14:29:20;20.23;;;8.55;;
12852;SDS011;6495;51.808;7.478;2023-02-15T14:32:07;15.85;;;8.02;;
12852;SDS011;6495;51.808;7.478;2023-02-15T14:34:44;16.90;;;8.43;;
12852;SDS011;6495;51.808;7.478;2023-02-15T14:37:19;15.70;;;8.50;;
12852;SDS011;6495;51.808;7.478;2023-02-15T14:40:02;15.75;;;7.72;;
12852;SDS011;6495;51.808;7.478;2023-02-15T14:42:58;17.48;;;7.50;;
12852;SDS011;6495;51.808;7.478;2023-02-15T14:45:36;16.25;;;7.93;;
12852;SDS011;6495;51.808;7.478;2023-02-15T14:48:15;15.50;;;7.53;;
12852;SDS011;6495;51.808;7.478;2023-02-15T14:50:50;14.55;;;7.30;;
12852;SDS011;6495;51.808;7.478;2023-02-15T14:53:32;14.93;;;7.38;;
12852;SDS011;6495;51.808;7.478;2023-02-15T14:56:12;16.50;;;7.72;;
12852;SDS011;6495;51.808;7.478;2023-02-15T14:58:55;15.38;;;7.28;;
12852;SDS011;6495;51.808;7.478;2023-02-15T15:01:52;13.25;;;7.45;;
12852;SDS011;6495;51.808;7.478;2023-02-15T15:04:26;16.30;;;7.30;;
12852;SDS011;6495;51.808;7.478;2023-02-15T15:07:00;13.55;;;6.90;;
12852;SDS011;6495;51.808;7.478;2023-02-15T15:09:42;11.77;;;6.13;;
12852;SDS011;6495;51.808;7.478;2023-02-15T15:15:09;15.10;;;7.32;;
12852;SDS011;6495;51.808;7.478;2023-02-15T15:17:56;10.48;;;6.28;;
12852;SDS011;6495;51.808;7.478;2023-02-15T15:20:43;18.77;;;7.75;;
12852;SDS011;6495;51.808;7.478;2023-02-15T15:23:38;16.00;;;7.03;;
12852;SDS011;6495;51.808;7.478;2023-02-15T15:26:22;13.07;;;7.00;;
12852;SDS011;6495;51.808;7.478;2023-02-15T15:28:59;11.70;;;6.47;;
12852;SDS011;6495;51.808;7.478;2023-02-15T15:31:31;16.27;;;7.05;;
12852;SDS011;6495;51.808;7.478;2023-02-15T15:34:19;12.75;;;6.80;;
12852;SDS011;6495;51.808;7.478;2023-02-15T15:44:04;15.50;;;6.20;;
12852;SDS011;6495;51.808;7.478;2023-02-15T15:47:17;14.82;;;6.82;;
12852;SDS011;6495;51.808;7.478;2023-02-15T15:50:04;12.35;;;6.22;;
12852;SDS011;6495;51.808;7.478;2023-02-15T15:52:45;13.43;;;6.85;;
12852;SDS011;6495;51.808;7.478;2023-02-15T15:55:17;17.77;;;7.13;;
12852;SDS011;6495;51.808;7.478;2023-02-15T15:57:49;17.08;;;7.72;;
12852;SDS011;6495;51.808;7.478;2023-02-15T16:00:32;17.42;;;7.25;;
12852;SDS011;6495;51.808;7.478;2023-02-15T16:03:05;16.13;;;7.45;;
12852;SDS011;6495;51.808;7.478;2023-02-15T16:05:42;16.13;;;7.53;;
12852;SDS011;6495;51.808;7.478;2023-02-15T16:08:10;16.73;;;7.05;;